sensor_id;sensor_type;location;lat;lon;timestamp;P1;durP1;ratioP1;P2;durP2;ratioP2
11203;SDS011;5659;49.408;11.116;2024-01-15T00:01:21;73.10;;;29.23;;
11203;SDS011;5659;49.408;11.116;2024-01-15T00:03:47;75.50;;;29.10;;
11203;SDS011;5659;49.408;11.116;2024-01-15T00:06:13;86.43;;;30.87;;
11203;SDS011;5659;49.408;11.116;2024-01-15T00:08:39;79.47;;;30.00;;
11203;SDS011;5659;49.408;11.116;2024-01-15T00:11:05;81.10;;;31.07;;
11203;SDS011;5659;49.408;11.116;2024-01-15T00:13:31;76.37;;;30.03;;
11203;SDS011;5659;49.408;11.116;2024-01-15T00:15:57;73.90;;;28.97;;
11203;SDS011;5659;49.408;11.116;2024-01-15T00:18:23;65.33;;;28.87;;
11203;SDS011;5659;49.408;11.116;2024-01-15T00:20:49;65.37;;;28.70;;
11203;SDS011;5659;49.408;11.116;2024-01-15T00:23:15;67.43;;;27.37;;
11203;SDS011;5659;49.408;11.116;2024-01-15T00:25:41;67.73;;;27.33;;
11203;SDS011;5659;49.408;11.116;2024-01-15T00:28:07;69.23;;;27.70;;
11203;SDS011;5659;49.408;11.116;2024-01-15T00:30:33;62.50;;;25.83;;
11203;SDS011;5659;49.408;11.116;2024-01-15T00:32:58;74.47;;;29.50;;
11203;SDS011;5659;49.408;11.116;2024-01-15T00:35:24;74.63;;;28.83;;
11203;SDS011;5659;49.408;11.116;2024-01-15T00:37:50;68.03;;;26.73;;
11203;SDS011;5659;49.408;11.116;2024-01-15T00:40:16;68.07;;;27.60;;
11203;SDS011;5659;49.408;11.116;2024-01-15T00:42:42;70.93;;;28.37;;
11203;SDS011;5659;49.408;11.116;2024-01-15T00:45:09;73.63;;;28.27;;
11203;SDS011;5659;49.408;11.116;2024-01-15T00:47:35;74.90;;;27.70;;
11203;SDS011;5659;49.408;11.116;2024-01-15T00:50:01;63.70;;;24.10;;
11203;SDS011;5659;49.408;11.116;2024-01-15T00:52:28;70.57;;;29.90;;
11203;SDS011;5659;49.408;11.116;2024-01-15T00:54:54;76.20;;;27.60;;
11203;SDS011;5659;49.408;11.116;2024-01-15T00:57:20;70.33;;;29.70;;
11203;SDS011;5659;49.408;11.116;2024-01-15T00:59:46;63.63;;;25.57;;
11203;SDS011;5659;49.408;11.116;2024-01-15T01:02:13;61.80;;;25.40;;
11203;SDS011;5659;49.408;11.116;2024-01-15T01:04:39;62.90;;;24.83;;
11203;SDS011;5659;49.408;11.116;2024-01-15T01:07:05;60.10;;;25.77;;
11203;SDS011;5659;49.408;11.116;2024-01-15T01:09:30;65.03;;;25.60;;
11203;SDS011;5659;49.408;11.116;2024-01-15T01:11:56;69.53;;;27.40;;
11203;SDS011;5659;49.408;11.116;2024-01-15T01:14:22;65.47;;;26.23;;
11203;SDS011;5659;49.408;11.116;2024-01-15T01:16:48;66.07;;;26.87;;
11203;SDS011;5659;49.408;11.116;2024-01-15T01:19:14;59.83;;;25.53;;
11203;SDS011;5659;49.408;11.116;2024-01-15T01:21:41;66.57;;;25.07;;
11203;SDS011;5659;49.408;11.116;2024-01-15T01:24:07;58.60;;;24.63;;
11203;SDS011;5659;49.408;11.116;2024-01-15T01:26:33;57.80;;;25.33;;
11203;SDS011;5659;49.408;11.116;2024-01-15T01:28:59;60.57;;;24.60;;
11203;SDS011;5659;49.408;11.116;2024-01-15T01:31:25;61.60;;;26.10;;
11203;SDS011;5659;49.408;11.116;2024-01-15T01:33:51;62.67;;;25.47;;
11203;SDS011;5659;49.408;11.116;2024-01-15T01:36:17;64.10;;;25.10;;
11203;SDS011;5659;49.408;11.116;2024-01-15T01:38:43;57.97;;;25.07;;
11203;SDS011;5659;49.408;11.116;2024-01-15T01:41:09;52.27;;;24.40;;
11203;SDS011;5659;49.408;11.116;2024-01-15T01:43:35;65.77;;;24.10;;
11203;SDS011;5659;49.408;11.116;2024-01-15T01:46:01;59.00;;;25.63;;
11203;SDS011;5659;49.408;11.116;2024-01-15T01:48:28;57.53;;;24.60;;
11203;SDS011;5659;49.408;11.116;2024-01-15T01:50:54;64.03;;;24.63;;
11203;SDS011;5659;49.408;11.116;2024-01-15T01:53:22;62.67;;;24.27;;
11203;SDS011;5659;49.408;11.116;2024-01-15T01:55:49;59.97;;;26.47;;
11203;SDS011;5659;49.408;11.116;2024-01-15T01:58:16;58.97;;;25.00;;
11203;SDS011;5659;49.408;11.116;2024-01-15T02:00:42;55.63;;;23.13;;
11203;SDS011;5659;49.408;11.116;2024-01-15T02:03:08;59.30;;;24.93;;
11203;SDS011;5659;49.408;11.116;2024-01-15T02:05:35;55.83;;;23.60;;
11203;SDS011;5659;49.408;11.116;2024-01-15T02:08:01;61.43;;;23.50;;
11203;SDS011;5659;49.408;11.116;2024-01-15T02:10:26;61.67;;;24.40;;
11203;SDS011;5659;49.408;11.116;2024-01-15T02:12:52;57.20;;;24.07;;
11203;SDS011;5659;49.408;11.116;2024-01-15T02:15:18;58.03;;;23.53;;
11203;SDS011;5659;49.408;11.116;2024-01-15T02:18:00;52.67;;;22.47;;
11203;SDS011;5659;49.408;11.116;2024-01-15T02:20:27;53.70;;;22.73;;
11203;SDS011;5659;49.408;11.116;2024-01-15T02:22:53;58.53;;;22.50;;
11203;SDS011;5659;49.408;11.116;2024-01-15T02:25:19;53.07;;;21.33;;
11203;SDS011;5659;49.408;11.116;2024-01-15T02:27:45;53.50;;;21.43;;
11203;SDS011;5659;49.408;11.116;2024-01-15T02:30:12;58.03;;;21.83;;
11203;SDS011;5659;49.408;11.116;2024-01-15T02:32:38;52.63;;;21.80;;
11203;SDS011;5659;49.408;11.116;2024-01-15T02:35:04;54.60;;;21.77;;
11203;SDS011;5659;49.408;11.116;2024-01-15T02:37:30;48.47;;;21.90;;
11203;SDS011;5659;49.408;11.116;2024-01-15T02:39:56;50.53;;;21.33;;
11203;SDS011;5659;49.408;11.116;2024-01-15T02:42:22;50.43;;;20.83;;
11203;SDS011;5659;49.408;11.116;2024-01-15T02:44:48;46.37;;;20.63;;
11203;SDS011;5659;49.408;11.116;2024-01-15T02:47:14;49.03;;;19.43;;
11203;SDS011;5659;49.408;11.116;2024-01-15T02:49:40;47.60;;;19.90;;
11203;SDS011;5659;49.408;11.116;2024-01-15T02:52:06;53.73;;;21.63;;
11203;SDS011;5659;49.408;11.116;2024-01-15T02:54:32;43.60;;;17.67;;
11203;SDS011;5659;49.408;11.116;2024-01-15T02:56:58;51.20;;;21.20;;
11203;SDS011;5659;49.408;11.116;2024-01-15T02:59:24;50.43;;;21.23;;
11203;SDS011;5659;49.408;11.116;2024-01-15T03:01:50;49.43;;;20.40;;
11203;SDS011;5659;49.408;11.116;2024-01-15T03:04:16;48.87;;;21.23;;
11203;SDS011;5659;49.408;11.116;2024-01-15T03:06:42;50.77;;;20.90;;
11203;SDS011;5659;49.408;11.116;2024-01-15T03:09:08;47.87;;;19.10;;
11203;SDS011;5659;49.408;11.116;2024-01-15T03:11:37;46.00;;;18.63;;
11203;SDS011;5659;49.408;11.116;2024-01-15T03:14:04;46.03;;;19.50;;
11203;SDS011;5659;49.408;11.116;2024-01-15T03:16:30;42.70;;;18.87;;
11203;SDS011;5659;49.408;11.116;2024-01-15T03:18:56;44.10;;;19.33;;
11203;SDS011;5659;49.408;11.116;2024-01-15T03:21:21;42.73;;;19.00;;
11203;SDS011;5659;49.408;11.116;2024-01-15T03:23:47;45.27;;;18.20;;
11203;SDS011;5659;49.408;11.116;2024-01-15T03:26:13;42.20;;;18.47;;
11203;SDS011;5659;49.408;11.116;2024-01-15T03:28:39;40.60;;;17.67;;
11203;SDS011;5659;49.408;11.116;2024-01-15T03:31:05;40.33;;;16.53;;
11203;SDS011;5659;49.408;11.116;2024-01-15T03:33:33;42.00;;;17.70;;
11203;SDS011;5659;49.408;11.116;2024-01-15T03:35:59;44.30;;;16.33;;
11203;SDS011;5659;49.408;11.116;2024-01-15T03:38:26;39.60;;;17.10;;
11203;SDS011;5659;49.408;11.116;2024-01-15T03:40:52;36.40;;;16.83;;
11203;SDS011;5659;49.408;11.116;2024-01-15T03:43:18;37.60;;;15.97;;
11203;SDS011;5659;49.408;11.116;2024-01-15T03:45:44;39.03;;;17.17;;
11203;SDS011;5659;49.408;11.116;2024-01-15T03:48:10;35.53;;;16.20;;
11203;SDS011;5659;49.408;11.116;2024-01-15T03:50:36;39.50;;;17.20;;
11203;SDS011;5659;49.408;11.116;2024-01-15T03:53:02;35.93;;;15.10;;
11203;SDS011;5659;49.408;11.116;2024-01-15T03:55:28;38.13;;;16.87;;
11203;SDS011;5659;49.408;11.116;2024-01-15T03:57:54;33.87;;;13.43;;
11203;SDS011;5659;49.408;11.116;2024-01-15T04:00:22;39.57;;;17.27;;
11203;SDS011;5659;49.408;11.116;2024-01-15T04:02:48;39.10;;;17.33;;
11203;SDS011;5659;49.408;11.116;2024-01-15T04:05:14;41.50;;;16.70;;
11203;SDS011;5659;49.408;11.116;2024-01-15T04:07:40;39.03;;;17.50;;
11203;SDS011;5659;49.408;11.116;2024-01-15T04:10:06;42.27;;;16.13;;
11203;SDS011;5659;49.408;11.116;2024-01-15T04:12:32;41.30;;;16.33;;
11203;SDS011;5659;49.408;11.116;2024-01-15T04:14:58;39.10;;;18.87;;
11203;SDS011;5659;49.408;11.116;2024-01-15T04:17:24;36.77;;;16.80;;
11203;SDS011;5659;49.408;11.116;2024-01-15T04:19:50;39.33;;;16.77;;
11203;SDS011;5659;49.408;11.116;2024-01-15T04:22:16;36.13;;;16.70;;
11203;SDS011;5659;49.408;11.116;2024-01-15T04:24:42;38.07;;;16.93;;
11203;SDS011;5659;49.408;11.116;2024-01-15T04:27:08;37.33;;;16.50;;
11203;SDS011;5659;49.408;11.116;2024-01-15T04:29:34;36.47;;;16.03;;
11203;SDS011;5659;49.408;11.116;2024-01-15T04:32:00;34.20;;;16.03;;
11203;SDS011;5659;49.408;11.116;2024-01-15T04:34:26;37.40;;;16.07;;
11203;SDS011;5659;49.408;11.116;2024-01-15T04:36:52;38.00;;;15.73;;
11203;SDS011;5659;49.408;11.116;2024-01-15T04:39:18;35.93;;;16.40;;
11203;SDS011;5659;49.408;11.116;2024-01-15T04:41:44;39.10;;;16.20;;
11203;SDS011;5659;49.408;11.116;2024-01-15T04:44:10;37.33;;;16.00;;
11203;SDS011;5659;49.408;11.116;2024-01-15T04:46:36;39.73;;;15.87;;
11203;SDS011;5659;49.408;11.116;2024-01-15T04:49:02;37.90;;;17.17;;
11203;SDS011;5659;49.408;11.116;2024-01-15T04:51:28;39.53;;;16.17;;
11203;SDS011;5659;49.408;11.116;2024-01-15T04:53:54;36.37;;;17.47;;
11203;SDS011;5659;49.408;11.116;2024-01-15T04:56:20;44.57;;;17.03;;
11203;SDS011;5659;49.408;11.116;2024-01-15T04:58:45;39.60;;;16.10;;
11203;SDS011;5659;49.408;11.116;2024-01-15T05:01:11;38.70;;;17.33;;
11203;SDS011;5659;49.408;11.116;2024-01-15T05:03:37;26.13;;;12.07;;
11203;SDS011;5659;49.408;11.116;2024-01-15T05:06:04;44.00;;;17.30;;
11203;SDS011;5659;49.408;11.116;2024-01-15T05:08:30;43.40;;;17.20;;
11203;SDS011;5659;49.408;11.116;2024-01-15T05:10:56;42.80;;;17.77;;
11203;SDS011;5659;49.408;11.116;2024-01-15T05:13:22;37.87;;;16.97;;
11203;SDS011;5659;49.408;11.116;2024-01-15T05:15:48;37.73;;;17.07;;
11203;SDS011;5659;49.408;11.116;2024-01-15T05:18:14;41.67;;;17.27;;
11203;SDS011;5659;49.408;11.116;2024-01-15T05:20:40;35.47;;;16.93;;
11203;SDS011;5659;49.408;11.116;2024-01-15T05:23:07;37.23;;;17.77;;
11203;SDS011;5659;49.408;11.116;2024-01-15T05:25:33;33.90;;;15.63;;
11203;SDS011;5659;49.408;11.116;2024-01-15T05:27:59;35.90;;;15.37;;
11203;SDS011;5659;49.408;11.116;2024-01-15T05:30:25;40.07;;;16.87;;
11203;SDS011;5659;49.408;11.116;2024-01-15T05:32:51;37.17;;;16.90;;
11203;SDS011;5659;49.408;11.116;2024-01-15T05:35:17;38.17;;;17.13;;
11203;SDS011;5659;49.408;11.116;2024-01-15T05:37:43;36.93;;;16.33;;
11203;SDS011;5659;49.408;11.116;2024-01-15T05:40:10;40.90;;;15.93;;
11203;SDS011;5659;49.408;11.116;2024-01-15T05:42:37;33.93;;;16.30;;
11203;SDS011;5659;49.408;11.116;2024-01-15T05:45:03;36.03;;;14.60;;
11203;SDS011;5659;49.408;11.116;2024-01-15T05:47:29;37.77;;;16.10;;
11203;SDS011;5659;49.408;11.116;2024-01-15T05:49:56;33.63;;;16.03;;
11203;SDS011;5659;49.408;11.116;2024-01-15T05:52:22;37.60;;;15.70;;
11203;SDS011;5659;49.408;11.116;2024-01-15T05:54:49;34.10;;;15.17;;
11203;SDS011;5659;49.408;11.116;2024-01-15T05:57:15;33.13;;;15.07;;
11203;SDS011;5659;49.408;11.116;2024-01-15T05:59:41;29.90;;;14.47;;
11203;SDS011;5659;49.408;11.116;2024-01-15T06:02:07;34.13;;;15.77;;
11203;SDS011;5659;49.408;11.116;2024-01-15T06:04:33;32.47;;;14.07;;
11203;SDS011;5659;49.408;11.116;2024-01-15T06:06:59;33.77;;;15.13;;
11203;SDS011;5659;49.408;11.116;2024-01-15T06:09:25;30.60;;;14.07;;
11203;SDS011;5659;49.408;11.116;2024-01-15T06:11:51;31.03;;;14.80;;
11203;SDS011;5659;49.408;11.116;2024-01-15T06:14:16;29.90;;;13.20;;
11203;SDS011;5659;49.408;11.116;2024-01-15T06:16:42;30.93;;;15.13;;
11203;SDS011;5659;49.408;11.116;2024-01-15T06:19:08;31.63;;;14.97;;
11203;SDS011;5659;49.408;11.116;2024-01-15T06:21:34;30.73;;;14.43;;
11203;SDS011;5659;49.408;11.116;2024-01-15T06:24:00;35.40;;;14.53;;
11203;SDS011;5659;49.408;11.116;2024-01-15T06:26:26;31.90;;;14.53;;
11203;SDS011;5659;49.408;11.116;2024-01-15T06:28:52;32.73;;;14.07;;
11203;SDS011;5659;49.408;11.116;2024-01-15T06:31:18;31.30;;;14.23;;
11203;SDS011;5659;49.408;11.116;2024-01-15T06:33:44;37.67;;;15.50;;
11203;SDS011;5659;49.408;11.116;2024-01-15T06:36:13;35.00;;;14.33;;
11203;SDS011;5659;49.408;11.116;2024-01-15T06:38:39;29.43;;;14.13;;
11203;SDS011;5659;49.408;11.116;2024-01-15T06:41:05;29.90;;;14.33;;
11203;SDS011;5659;49.408;11.116;2024-01-15T06:43:31;28.93;;;14.50;;
11203;SDS011;5659;49.408;11.116;2024-01-15T06:45:57;35.40;;;16.33;;
11203;SDS011;5659;49.408;11.116;2024-01-15T06:48:23;34.33;;;15.80;;
11203;SDS011;5659;49.408;11.116;2024-01-15T06:50:49;27.83;;;14.37;;
11203;SDS011;5659;49.408;11.116;2024-01-15T06:53:15;35.97;;;15.10;;
11203;SDS011;5659;49.408;11.116;2024-01-15T06:55:41;36.50;;;15.30;;
11203;SDS011;5659;49.408;11.116;2024-01-15T06:58:07;33.17;;;14.80;;
11203;SDS011;5659;49.408;11.116;2024-01-15T07:00:33;31.33;;;16.10;;
11203;SDS011;5659;49.408;11.116;2024-01-15T07:02:59;32.40;;;15.03;;
11203;SDS011;5659;49.408;11.116;2024-01-15T07:05:25;37.67;;;14.87;;
11203;SDS011;5659;49.408;11.116;2024-01-15T07:07:51;28.20;;;14.20;;
11203;SDS011;5659;49.408;11.116;2024-01-15T07:10:17;33.43;;;15.20;;
11203;SDS011;5659;49.408;11.116;2024-01-15T07:12:43;33.87;;;14.63;;
11203;SDS011;5659;49.408;11.116;2024-01-15T07:15:09;30.47;;;14.07;;
11203;SDS011;5659;49.408;11.116;2024-01-15T07:17:35;35.47;;;14.50;;
11203;SDS011;5659;49.408;11.116;2024-01-15T07:20:04;32.20;;;14.03;;
11203;SDS011;5659;49.408;11.116;2024-01-15T07:22:32;29.30;;;13.80;;
11203;SDS011;5659;49.408;11.116;2024-01-15T07:24:58;42.63;;;15.97;;
11203;SDS011;5659;49.408;11.116;2024-01-15T07:27:24;33.67;;;15.37;;
11203;SDS011;5659;49.408;11.116;2024-01-15T07:29:50;27.63;;;13.83;;
11203;SDS011;5659;49.408;11.116;2024-01-15T07:32:15;32.20;;;13.97;;
11203;SDS011;5659;49.408;11.116;2024-01-15T07:34:42;35.30;;;15.63;;
11203;SDS011;5659;49.408;11.116;2024-01-15T07:37:07;32.07;;;15.50;;
11203;SDS011;5659;49.408;11.116;2024-01-15T07:39:33;26.47;;;14.50;;
11203;SDS011;5659;49.408;11.116;2024-01-15T07:42:00;30.30;;;14.47;;
11203;SDS011;5659;49.408;11.116;2024-01-15T07:44:26;29.43;;;13.67;;
11203;SDS011;5659;49.408;11.116;2024-01-15T07:46:52;37.17;;;16.33;;
11203;SDS011;5659;49.408;11.116;2024-01-15T07:49:18;31.77;;;15.80;;
11203;SDS011;5659;49.408;11.116;2024-01-15T07:51:44;33.07;;;14.17;;
11203;SDS011;5659;49.408;11.116;2024-01-15T07:54:10;31.83;;;15.37;;
11203;SDS011;5659;49.408;11.116;2024-01-15T07:59:22;35.90;;;14.47;;
11203;SDS011;5659;49.408;11.116;2024-01-15T08:01:48;31.43;;;14.33;;
11203;SDS011;5659;49.408;11.116;2024-01-15T08:04:14;31.90;;;15.47;;
11203;SDS011;5659;49.408;11.116;2024-01-15T08:06:40;29.93;;;14.67;;
11203;SDS011;5659;49.408;11.116;2024-01-15T08:09:06;30.67;;;14.07;;
11203;SDS011;5659;49.408;11.116;2024-01-15T08:11:33;31.93;;;14.53;;
11203;SDS011;5659;49.408;11.116;2024-01-15T08:13:59;29.43;;;15.43;;
11203;SDS011;5659;49.408;11.116;2024-01-15T08:16:25;29.57;;;15.43;;
11203;SDS011;5659;49.408;11.116;2024-01-15T08:18:52;28.80;;;15.77;;
11203;SDS011;5659;49.408;11.116;2024-01-15T08:21:18;29.57;;;15.50;;
11203;SDS011;5659;49.408;11.116;2024-01-15T08:23:44;35.10;;;15.27;;
11203;SDS011;5659;49.408;11.116;2024-01-15T08:26:10;32.97;;;15.50;;
11203;SDS011;5659;49.408;11.116;2024-01-15T08:28:36;30.33;;;15.00;;
11203;SDS011;5659;49.408;11.116;2024-01-15T08:31:02;26.53;;;13.30;;
11203;SDS011;5659;49.408;11.116;2024-01-15T08:33:28;28.83;;;14.10;;
11203;SDS011;5659;49.408;11.116;2024-01-15T08:35:54;30.53;;;14.97;;
11203;SDS011;5659;49.408;11.116;2024-01-15T08:38:20;30.77;;;14.67;;
11203;SDS011;5659;49.408;11.116;2024-01-15T08:40:46;28.07;;;14.20;;
11203;SDS011;5659;49.408;11.116;2024-01-15T08:43:13;27.17;;;14.07;;
11203;SDS011;5659;49.408;11.116;2024-01-15T08:45:38;26.20;;;13.93;;
11203;SDS011;5659;49.408;11.116;2024-01-15T08:48:04;30.57;;;13.20;;
11203;SDS011;5659;49.408;11.116;2024-01-15T08:50:31;24.70;;;13.50;;
11203;SDS011;5659;49.408;11.116;2024-01-15T08:52:57;23.40;;;12.47;;
11203;SDS011;5659;49.408;11.116;2024-01-15T08:55:23;25.43;;;13.20;;
11203;SDS011;5659;49.408;11.116;2024-01-15T08:57:50;26.70;;;13.07;;
11203;SDS011;5659;49.408;11.116;2024-01-15T09:00:16;29.87;;;13.07;;
11203;SDS011;5659;49.408;11.116;2024-01-15T09:02:43;27.27;;;12.50;;
11203;SDS011;5659;49.408;11.116;2024-01-15T09:05:09;21.53;;;10.80;;
11203;SDS011;5659;49.408;11.116;2024-01-15T09:07:35;29.27;;;13.10;;
11203;SDS011;5659;49.408;11.116;2024-01-15T09:10:01;21.27;;;11.80;;
11203;SDS011;5659;49.408;11.116;2024-01-15T09:12:27;27.20;;;11.80;;
11203;SDS011;5659;49.408;11.116;2024-01-15T09:14:54;21.03;;;11.10;;
11203;SDS011;5659;49.408;11.116;2024-01-15T09:17:20;21.33;;;11.93;;
11203;SDS011;5659;49.408;11.116;2024-01-15T09:19:49;25.17;;;11.47;;
11203;SDS011;5659;49.408;11.116;2024-01-15T09:22:15;22.63;;;10.50;;
11203;SDS011;5659;49.408;11.116;2024-01-15T09:24:44;21.37;;;12.30;;
11203;SDS011;5659;49.408;11.116;2024-01-15T09:27:11;26.23;;;13.07;;
11203;SDS011;5659;49.408;11.116;2024-01-15T09:29:36;25.90;;;13.13;;
11203;SDS011;5659;49.408;11.116;2024-01-15T09:32:05;22.97;;;12.73;;
11203;SDS011;5659;49.408;11.116;2024-01-15T09:34:32;22.83;;;12.50;;
11203;SDS011;5659;49.408;11.116;2024-01-15T09:36:58;23.43;;;12.13;;
11203;SDS011;5659;49.408;11.116;2024-01-15T09:39:25;25.20;;;12.60;;
11203;SDS011;5659;49.408;11.116;2024-01-15T09:41:51;23.93;;;12.87;;
11203;SDS011;5659;49.408;11.116;2024-01-15T09:44:17;21.27;;;12.17;;
11203;SDS011;5659;49.408;11.116;2024-01-15T09:46:43;29.67;;;13.07;;
11203;SDS011;5659;49.408;11.116;2024-01-15T09:49:09;26.33;;;10.27;;
11203;SDS011;5659;49.408;11.116;2024-01-15T09:51:35;19.97;;;11.40;;
11203;SDS011;5659;49.408;11.116;2024-01-15T09:54:02;25.27;;;11.63;;
11203;SDS011;5659;49.408;11.116;2024-01-15T09:56:29;28.03;;;12.13;;
11203;SDS011;5659;49.408;11.116;2024-01-15T09:58:56;19.70;;;10.97;;
11203;SDS011;5659;49.408;11.116;2024-01-15T10:01:23;23.10;;;11.53;;
11203;SDS011;5659;49.408;11.116;2024-01-15T10:03:49;18.93;;;11.13;;
11203;SDS011;5659;49.408;11.116;2024-01-15T10:06:16;20.67;;;10.87;;
11203;SDS011;5659;49.408;11.116;2024-01-15T10:08:42;24.13;;;12.30;;
11203;SDS011;5659;49.408;11.116;2024-01-15T10:11:09;21.67;;;10.73;;
11203;SDS011;5659;49.408;11.116;2024-01-15T10:13:35;20.47;;;11.47;;
11203;SDS011;5659;49.408;11.116;2024-01-15T10:16:01;18.70;;;10.50;;
11203;SDS011;5659;49.408;11.116;2024-01-15T10:18:28;18.27;;;10.70;;
11203;SDS011;5659;49.408;11.116;2024-01-15T10:20:54;19.73;;;9.90;;
11203;SDS011;5659;49.408;11.116;2024-01-15T10:23:20;19.93;;;10.20;;
11203;SDS011;5659;49.408;11.116;2024-01-15T10:25:46;19.03;;;10.37;;
11203;SDS011;5659;49.408;11.116;2024-01-15T10:28:13;17.97;;;10.37;;
11203;SDS011;5659;49.408;11.116;2024-01-15T10:30:39;18.03;;;10.23;;
11203;SDS011;5659;49.408;11.116;2024-01-15T10:33:05;21.13;;;10.60;;
11203;SDS011;5659;49.408;11.116;2024-01-15T10:35:32;19.27;;;10.63;;
11203;SDS011;5659;49.408;11.116;2024-01-15T10:37:58;24.90;;;10.60;;
11203;SDS011;5659;49.408;11.116;2024-01-15T10:40:24;20.73;;;11.60;;
11203;SDS011;5659;49.408;11.116;2024-01-15T10:42:50;18.80;;;10.20;;
11203;SDS011;5659;49.408;11.116;2024-01-15T10:45:17;22.93;;;11.10;;
11203;SDS011;5659;49.408;11.116;2024-01-15T10:47:43;18.27;;;10.53;;
11203;SDS011;5659;49.408;11.116;2024-01-15T10:50:09;20.23;;;11.10;;
11203;SDS011;5659;49.408;11.116;2024-01-15T10:52:39;20.53;;;10.13;;
11203;SDS011;5659;49.408;11.116;2024-01-15T10:55:06;19.13;;;10.40;;
11203;SDS011;5659;49.408;11.116;2024-01-15T10:57:36;19.97;;;9.77;;
11203;SDS011;5659;49.408;11.116;2024-01-15T11:00:03;18.17;;;10.77;;
11203;SDS011;5659;49.408;11.116;2024-01-15T11:02:30;19.47;;;10.50;;
11203;SDS011;5659;49.408;11.116;2024-01-15T11:04:58;25.27;;;10.70;;
11203;SDS011;5659;49.408;11.116;2024-01-15T11:07:26;19.13;;;10.43;;
11203;SDS011;5659;49.408;11.116;2024-01-15T11:09:52;19.17;;;10.27;;
11203;SDS011;5659;49.408;11.116;2024-01-15T11:12:18;25.90;;;10.87;;
11203;SDS011;5659;49.408;11.116;2024-01-15T11:14:48;17.60;;;10.80;;
11203;SDS011;5659;49.408;11.116;2024-01-15T11:17:14;21.00;;;10.00;;
11203;SDS011;5659;49.408;11.116;2024-01-15T11:22:08;20.53;;;10.97;;
11203;SDS011;5659;49.408;11.116;2024-01-15T11:24:34;16.63;;;9.17;;
11203;SDS011;5659;49.408;11.116;2024-01-15T11:27:01;16.17;;;9.93;;
11203;SDS011;5659;49.408;11.116;2024-01-15T11:32:03;20.13;;;10.63;;
11203;SDS011;5659;49.408;11.116;2024-01-15T11:37:14;17.80;;;10.10;;
11203;SDS011;5659;49.408;11.116;2024-01-15T11:39:41;20.67;;;10.17;;
11203;SDS011;5659;49.408;11.116;2024-01-15T11:42:11;18.43;;;10.60;;
11203;SDS011;5659;49.408;11.116;2024-01-15T11:44:37;23.77;;;11.13;;
11203;SDS011;5659;49.408;11.116;2024-01-15T11:47:07;19.60;;;10.70;;
11203;SDS011;5659;49.408;11.116;2024-01-15T11:49:58;17.70;;;11.00;;
11203;SDS011;5659;49.408;11.116;2024-01-15T11:52:37;22.73;;;10.60;;
11203;SDS011;5659;49.408;11.116;2024-01-15T11:57:42;18.33;;;10.00;;
11203;SDS011;5659;49.408;11.116;2024-01-15T12:00:11;20.47;;;10.23;;
11203;SDS011;5659;49.408;11.116;2024-01-15T12:02:39;14.60;;;9.90;;
11203;SDS011;5659;49.408;11.116;2024-01-15T12:05:06;13.50;;;9.17;;
11203;SDS011;5659;49.408;11.116;2024-01-15T12:07:32;17.37;;;10.13;;
11203;SDS011;5659;49.408;11.116;2024-01-15T12:09:59;16.77;;;10.10;;
11203;SDS011;5659;49.408;11.116;2024-01-15T12:12:28;16.17;;;9.87;;
11203;SDS011;5659;49.408;11.116;2024-01-15T12:14:56;15.23;;;9.93;;
11203;SDS011;5659;49.408;11.116;2024-01-15T12:17:22;17.57;;;10.80;;
11203;SDS011;5659;49.408;11.116;2024-01-15T12:19:48;17.60;;;11.10;;
11203;SDS011;5659;49.408;11.116;2024-01-15T12:22:14;19.37;;;10.50;;
11203;SDS011;5659;49.408;11.116;2024-01-15T12:24:40;18.13;;;10.37;;
11203;SDS011;5659;49.408;11.116;2024-01-15T12:27:06;16.23;;;10.43;;
11203;SDS011;5659;49.408;11.116;2024-01-15T12:29:33;18.10;;;10.43;;
11203;SDS011;5659;49.408;11.116;2024-01-15T12:31:59;21.07;;;10.53;;
11203;SDS011;5659;49.408;11.116;2024-01-15T12:34:28;22.40;;;10.97;;
11203;SDS011;5659;49.408;11.116;2024-01-15T12:36:56;17.83;;;10.77;;
11203;SDS011;5659;49.408;11.116;2024-01-15T12:39:22;19.57;;;10.63;;
11203;SDS011;5659;49.408;11.116;2024-01-15T12:41:49;20.87;;;10.23;;
11203;SDS011;5659;49.408;11.116;2024-01-15T12:44:15;27.23;;;11.03;;
11203;SDS011;5659;49.408;11.116;2024-01-15T12:46:41;18.43;;;10.20;;
11203;SDS011;5659;49.408;11.116;2024-01-15T12:49:08;15.20;;;9.40;;
11203;SDS011;5659;49.408;11.116;2024-01-15T12:51:34;19.87;;;10.17;;
11203;SDS011;5659;49.408;11.116;2024-01-15T12:54:00;15.37;;;10.10;;
11203;SDS011;5659;49.408;11.116;2024-01-15T12:56:26;17.07;;;10.23;;
11203;SDS011;5659;49.408;11.116;2024-01-15T12:58:52;16.60;;;9.53;;
11203;SDS011;5659;49.408;11.116;2024-01-15T13:01:18;17.50;;;10.00;;
11203;SDS011;5659;49.408;11.116;2024-01-15T13:03:44;19.20;;;9.73;;
11203;SDS011;5659;49.408;11.116;2024-01-15T13:06:10;16.97;;;9.57;;
11203;SDS011;5659;49.408;11.116;2024-01-15T13:08:36;18.43;;;10.17;;
11203;SDS011;5659;49.408;11.116;2024-01-15T13:11:02;19.97;;;9.60;;
11203;SDS011;5659;49.408;11.116;2024-01-15T13:13:28;17.47;;;9.93;;
11203;SDS011;5659;49.408;11.116;2024-01-15T13:15:55;15.83;;;9.40;;
11203;SDS011;5659;49.408;11.116;2024-01-15T13:18:21;21.63;;;9.70;;
11203;SDS011;5659;49.408;11.116;2024-01-15T13:20:47;16.03;;;9.23;;
11203;SDS011;5659;49.408;11.116;2024-01-15T13:23:13;17.00;;;8.77;;
11203;SDS011;5659;49.408;11.116;2024-01-15T13:25:39;16.83;;;8.07;;
11203;SDS011;5659;49.408;11.116;2024-01-15T13:28:06;15.47;;;9.00;;
11203;SDS011;5659;49.408;11.116;2024-01-15T13:30:33;16.83;;;9.80;;
11203;SDS011;5659;49.408;11.116;2024-01-15T13:32:59;17.97;;;9.67;;
11203;SDS011;5659;49.408;11.116;2024-01-15T13:35:29;15.10;;;8.83;;
11203;SDS011;5659;49.408;11.116;2024-01-15T13:37:55;19.37;;;10.00;;
11203;SDS011;5659;49.408;11.116;2024-01-15T13:40:21;16.07;;;9.53;;
11203;SDS011;5659;49.408;11.116;2024-01-15T13:42:47;15.60;;;9.00;;
11203;SDS011;5659;49.408;11.116;2024-01-15T13:45:13;14.50;;;9.27;;
11203;SDS011;5659;49.408;11.116;2024-01-15T13:47:40;15.23;;;9.00;;
11203;SDS011;5659;49.408;11.116;2024-01-15T13:50:07;14.90;;;9.57;;
11203;SDS011;5659;49.408;11.116;2024-01-15T13:52:33;14.73;;;9.33;;
11203;SDS011;5659;49.408;11.116;2024-01-15T13:54:59;22.47;;;9.00;;
11203;SDS011;5659;49.408;11.116;2024-01-15T13:57:25;16.30;;;8.57;;
11203;SDS011;5659;49.408;11.116;2024-01-15T13:59:51;15.93;;;9.83;;
11203;SDS011;5659;49.408;11.116;2024-01-15T14:02:17;18.67;;;10.23;;
11203;SDS011;5659;49.408;11.116;2024-01-15T14:04:43;15.23;;;9.60;;
11203;SDS011;5659;49.408;11.116;2024-01-15T14:07:09;19.67;;;9.93;;
11203;SDS011;5659;49.408;11.116;2024-01-15T14:09:35;17.20;;;9.93;;
11203;SDS011;5659;49.408;11.116;2024-01-15T14:12:02;16.27;;;9.37;;
11203;SDS011;5659;49.408;11.116;2024-01-15T14:14:28;16.37;;;9.77;;
11203;SDS011;5659;49.408;11.116;2024-01-15T14:16:54;17.50;;;9.30;;
11203;SDS011;5659;49.408;11.116;2024-01-15T14:19:20;18.60;;;9.73;;
11203;SDS011;5659;49.408;11.116;2024-01-15T14:21:46;15.13;;;9.33;;
11203;SDS011;5659;49.408;11.116;2024-01-15T14:24:12;17.17;;;9.37;;
11203;SDS011;5659;49.408;11.116;2024-01-15T14:26:38;19.83;;;10.07;;
11203;SDS011;5659;49.408;11.116;2024-01-15T14:29:04;17.73;;;10.47;;
11203;SDS011;5659;49.408;11.116;2024-01-15T14:31:31;16.03;;;9.27;;